Aurora, CO (80042)

11:33 AM MDT on August 04, 2015 (GMT -0600)
UDFCD | | Change Station
CLOSE
Current Station
Personal Weather Station
Location: Aurora, CO
Elevation: 5463 ft
Nearby Weather Stations

Elev 5463 ft 39.71 °N, 104.81 °W | Updated 28 minutes ago

Partly Cloudy
Partly Cloudy
76 °F
Feels Like 77 °F
N
5
Wind Variable Wind from NNW
Gusts 9.0 mph

Today
High -- | Low -- °F
--% Chance of Precip.
Yesterday
High -- | Low -- °F
Precip. -- in
6:00 AM 8:09 PM
Waning Gibbous, 76% visible
Pressure 29.90 in
Visibility 10.0 miles
Clouds Few 7000 ft
Scattered Clouds 11000 ft
Mostly Cloudy 22000 ft
Heat Index 77 °F
Dew Point 12 °F
Humidity 32%
Rainfall in
Snow Depth Not available.
UV 5 out of 12
Pollen 7.60 out of 12
Air Quality Not available.
Flu Activity Not available.
METAR KBKF 041658Z 33011KT 10SM FEW070 SCT110 BKN220 26/07 A3012 RMK AO2A SLP123 T02570065

More Conditions Fewer Conditions

Pressure 29.90 in
Visibility 10.0 miles
Clouds Few 7000 ft
Scattered Clouds 11000 ft
Mostly Cloudy 22000 ft
Heat Index 77 °F
Dew Point 12 °F
Humidity 32%
Rainfall in
Snow Depth Not available.
UV 5 out of 12
Pollen 7.60 out of 12
Air Quality Not available.
Flu Activity Not available.
METAR KBKF 041658Z 33011KT 10SM FEW070 SCT110 BKN220 26/07 A3012 RMK AO2A SLP123 T02570065

More Conditions Fewer Conditions

10-Day Weather Forecast

×

Almanac

Astronomy

Aug. 04, 2015 Rise Set
Actual Time
Civil Twilight
Nautical Twilight
Astronomical Twilight
Moon
Length of Visible Light
Length of Day
Tomorrow will be .
, % of the Moon is Illuminated

Today's Extremes

State Highs State Lows

Community

WunderPhotos

Upload Photos

1,843,927 photos uploaded!

WunderBlogs® & News

Nearby

Air Quality

  Air Quality AQ Index Pollutant
Not available.

Snow Depth

Station Depth Elevation

Earthquake Activity

City Distance Mag. Time & Date
Minimum magnitude displayed is 2.5.

Coastal Water Temperatures

Place Temperature

Stations

Nearby Weather Stations

Station Location Temp. Windchill Dew Point Humidity Wind Precip. Elev Updated Type